createdAt,value
2022-11-28T00:00:49.435Z,39.35
2022-11-28T00:03:45.628Z,36.53
2022-11-28T00:09:54.576Z,38.28
2022-11-28T00:12:41.060Z,36.88
2022-11-28T00:15:28.942Z,36.60
2022-11-28T00:18:15.508Z,33.10
2022-11-28T00:21:27.766Z,37.38
2022-11-28T00:24:16.204Z,36.58
2022-11-28T00:27:04.048Z,35.28
2022-11-28T00:29:52.279Z,34.67
2022-11-28T00:32:38.749Z,36.67
2022-11-28T00:35:54.949Z,35.57
2022-11-28T00:38:41.557Z,37.03
2022-11-28T00:41:37.007Z,35.28
2022-11-28T00:44:24.901Z,40.38
2022-11-28T00:47:11.398Z,40.28
2022-11-28T00:49:57.496Z,36.90
2022-11-28T00:52:43.819Z,39.22
2022-11-28T00:55:30.128Z,38.55
2022-11-28T00:58:27.924Z,35.90
2022-11-28T01:01:17.107Z,36.28
2022-11-28T01:04:09.240Z,40.42
2022-11-28T01:06:59.214Z,39.58
2022-11-28T01:12:46.371Z,38.08
2022-11-28T01:15:33.841Z,36.10
2022-11-28T01:18:20.040Z,40.30
2022-11-28T01:21:07.459Z,39.97
2022-11-28T01:23:53.890Z,38.78
2022-11-28T01:27:01.030Z,40.00
2022-11-28T01:29:47.085Z,42.35
2022-11-28T01:32:33.399Z,39.00
2022-11-28T01:35:19.841Z,37.05
2022-11-28T01:38:06.464Z,38.42
2022-11-28T01:40:52.810Z,40.15
2022-11-28T01:43:39.638Z,41.85
2022-11-28T01:47:01.522Z,42.78
2022-11-28T01:49:48.505Z,43.78
2022-11-28T01:52:35.070Z,41.75
2022-11-28T01:55:26.717Z,39.75
2022-11-28T01:58:15.076Z,39.65
2022-11-28T02:01:02.134Z,39.60
2022-11-28T02:03:50.181Z,37.30
2022-11-28T02:06:37.329Z,34.70
2022-11-28T02:09:24.677Z,39.80
2022-11-28T02:12:17.703Z,37.75
2022-11-28T02:15:10.424Z,39.13
2022-11-28T02:21:12.179Z,37.13
2022-11-28T02:24:06.171Z,35.78
2022-11-28T02:27:04.597Z,35.40
2022-11-28T02:29:54.209Z,38.65
2022-11-28T02:32:52.938Z,33.47
2022-11-28T02:36:02.701Z,37.03
2022-11-28T02:42:15.175Z,37.03
2022-11-28T02:45:07.497Z,33.97
2022-11-28T02:48:04.388Z,37.15
2022-11-28T02:51:00.905Z,37.78
2022-11-28T02:56:58.989Z,39.25
2022-11-28T02:59:49.726Z,37.92
2022-11-28T03:02:42.050Z,37.92
2022-11-28T03:05:41.202Z,33.72
2022-11-28T03:08:46.258Z,35.13
2022-11-28T03:12:18.280Z,34.40
2022-11-28T03:15:22.402Z,34.42
2022-11-28T03:18:12.442Z,32.42
2022-11-28T03:21:37.738Z,34.30
2022-11-28T03:24:48.316Z,36.55
2022-11-28T03:27:37.345Z,34.72
2022-11-28T03:30:53.983Z,33.37
2022-11-28T03:33:44.287Z,34.13
2022-11-28T03:36:49.273Z,37.80
2022-11-28T03:39:37.769Z,32.42
2022-11-28T03:42:25.773Z,36.92
2022-11-28T03:45:34.781Z,35.40
2022-11-28T03:48:41.877Z,35.50
2022-11-28T03:51:38.407Z,32.90
2022-11-28T03:54:28.302Z,36.10
2022-11-28T04:01:00.958Z,34.28
2022-11-28T04:04:09.578Z,26.23
2022-11-28T04:07:07.413Z,31.10
2022-11-28T04:10:13.855Z,32.55
2022-11-28T04:13:00.129Z,32.70
2022-11-28T04:15:57.371Z,29.00
2022-11-28T04:18:44.231Z,30.73
2022-11-28T04:21:55.906Z,34.67
2022-11-28T04:24:45.595Z,32.25
2022-11-28T04:27:34.210Z,31.45
2022-11-28T04:36:55.372Z,30.02
2022-11-28T04:39:45.145Z,25.23
2022-11-28T04:42:52.476Z,31.02
2022-11-28T04:45:55.550Z,30.20
2022-11-28T04:48:42.296Z,29.10
2022-11-28T04:51:31.593Z,30.33
2022-11-28T04:54:27.509Z,29.05
2022-11-28T04:57:29.498Z,29.75
2022-11-28T05:00:17.870Z,29.67
2022-11-28T05:03:07.184Z,27.63
2022-11-28T05:05:56.765Z,27.02
2022-11-28T05:08:43.368Z,30.75
2022-11-28T05:11:29.619Z,31.50
2022-11-28T05:14:19.101Z,28.83
2022-11-28T05:17:05.495Z,26.15
2022-11-28T05:20:07.800Z,24.85
2022-11-28T05:22:57.328Z,28.38
2022-11-28T05:25:43.579Z,28.95
2022-11-28T05:28:29.950Z,29.45
2022-11-28T05:31:17.209Z,29.75
2022-11-28T05:34:03.883Z,31.73
2022-11-28T05:36:50.232Z,27.25
2022-11-28T05:39:36.318Z,26.30
2022-11-28T05:42:22.706Z,29.15
2022-11-28T05:45:09.481Z,33.03
2022-11-28T05:47:55.934Z,29.58
2022-11-28T05:50:42.962Z,27.98
2022-11-28T05:53:29.255Z,26.50
2022-11-28T05:56:19.808Z,28.35
2022-11-28T05:59:05.982Z,28.92
2022-11-28T06:01:52.325Z,32.60
2022-11-28T06:04:41.959Z,26.65
2022-11-28T06:07:28.293Z,29.00
2022-11-28T06:10:14.784Z,27.25
2022-11-28T06:13:01.821Z,28.23
2022-11-28T06:16:13.144Z,34.65
2022-11-28T06:19:01.405Z,31.27
2022-11-28T06:22:17.901Z,30.17
2022-11-28T06:25:06.424Z,27.15
2022-11-28T06:27:54.195Z,27.80
2022-11-28T06:30:40.644Z,26.73
2022-11-28T06:33:26.917Z,31.40
2022-11-28T06:36:13.799Z,31.98
2022-11-28T06:39:00.136Z,31.58
2022-11-28T06:41:46.556Z,39.53
2022-11-28T06:44:33.169Z,31.55
2022-11-28T06:47:19.139Z,32.50
2022-11-28T06:50:05.340Z,40.13
2022-11-28T06:52:52.662Z,31.92
2022-11-28T06:55:39.255Z,32.70
2022-11-28T07:01:46.058Z,37.35
2022-11-28T07:04:33.229Z,32.65
2022-11-28T07:07:53.337Z,33.65
2022-11-28T07:10:52.830Z,32.45
2022-11-28T07:13:41.702Z,31.48
2022-11-28T07:16:30.278Z,29.38
2022-11-28T07:22:26.218Z,37.05
2022-11-28T07:25:38.323Z,36.80
2022-11-28T07:28:24.755Z,34.83
2022-11-28T07:31:36.985Z,38.47
2022-11-28T07:34:29.862Z,34.08
2022-11-28T07:37:16.586Z,38.10
2022-11-28T07:40:12.602Z,41.78
2022-11-28T07:42:59.471Z,42.05
2022-11-28T07:52:11.389Z,50.53
2022-11-28T07:54:57.731Z,53.20
2022-11-28T07:57:43.913Z,57.83
2022-11-28T08:00:30.507Z,46.58
2022-11-28T08:03:16.599Z,38.53
2022-11-28T08:06:03.397Z,39.45
2022-11-28T08:08:51.148Z,36.63
2022-11-28T08:11:37.890Z,38.55
2022-11-28T08:14:24.403Z,37.38
2022-11-28T08:17:10.674Z,34.72
2022-11-28T08:19:56.890Z,36.72
2022-11-28T08:22:43.224Z,36.53
2022-11-28T08:25:29.665Z,37.78
2022-11-28T08:28:16.384Z,36.05
2022-11-28T08:31:09.763Z,38.72
2022-11-28T08:36:48.946Z,41.60
2022-11-28T08:39:35.081Z,45.70
2022-11-28T08:45:24.388Z,44.80
2022-11-28T08:48:11.399Z,46.55
2022-11-28T08:50:58.045Z,37.95
2022-11-28T08:53:48.674Z,35.65
2022-11-28T08:56:36.150Z,37.30
2022-11-28T08:59:22.751Z,34.03
2022-11-28T09:02:12.810Z,32.92
2022-11-28T09:04:59.116Z,35.22
2022-11-28T09:07:45.150Z,36.72
2022-11-28T09:10:31.724Z,39.05
2022-11-28T09:13:18.125Z,36.72
2022-11-28T09:16:04.938Z,40.08
2022-11-28T09:18:51.387Z,38.00
2022-11-28T09:21:38.058Z,37.70
2022-11-28T09:24:25.260Z,37.53
2022-11-28T09:31:04.825Z,38.47
2022-11-28T09:33:51.187Z,48.63
2022-11-28T09:36:52.800Z,50.20
2022-11-28T09:40:12.135Z,47.88
2022-11-28T09:45:45.410Z,40.83
2022-11-28T09:49:11.443Z,41.25
2022-11-28T09:51:59.846Z,40.53
2022-11-28T09:54:50.255Z,37.95
2022-11-28T10:01:41.929Z,34.22
2022-11-28T10:04:44.911Z,33.33
2022-11-28T10:07:56.378Z,37.47
2022-11-28T10:10:49.596Z,36.60
2022-11-28T10:14:08.775Z,33.88
2022-11-28T10:17:20.135Z,35.78
2022-11-28T10:20:27.216Z,37.40
2022-11-28T10:23:19.737Z,37.55
2022-11-28T10:26:16.652Z,37.97
2022-11-28T10:29:06.166Z,36.80
2022-11-28T10:31:55.982Z,38.28
2022-11-28T10:34:46.143Z,39.63
2022-11-28T10:37:33.136Z,36.42
2022-11-28T10:40:26.875Z,38.15
2022-11-28T10:43:31.973Z,37.25
2022-11-28T10:46:21.299Z,36.65
2022-11-28T10:49:33.769Z,39.25
2022-11-28T10:52:29.442Z,35.03
2022-11-28T10:55:34.299Z,39.33
2022-11-28T10:58:20.760Z,39.60
2022-11-28T11:01:07.013Z,40.80
2022-11-28T11:03:53.451Z,37.35
2022-11-28T11:06:47.661Z,38.17
2022-11-28T11:09:46.593Z,39.67
2022-11-28T11:12:34.308Z,44.17
2022-11-28T11:15:22.510Z,44.75
2022-11-28T11:18:38.701Z,36.90
2022-11-28T11:21:26.530Z,35.65
2022-11-28T11:24:16.218Z,39.15
2022-11-28T11:27:07.367Z,34.83
2022-11-28T11:32:57.765Z,39.75
2022-11-28T11:35:45.739Z,37.70
2022-11-28T11:38:37.955Z,36.72
2022-11-28T11:41:30.696Z,39.15
2022-11-28T11:44:17.212Z,39.50
2022-11-28T11:47:05.678Z,39.08
2022-11-28T11:49:51.897Z,37.88
2022-11-28T11:52:38.298Z,35.15
2022-11-28T11:55:26.151Z,33.28
2022-11-28T11:58:15.313Z,41.00
2022-11-28T12:01:02.268Z,35.30
2022-11-28T12:03:58.386Z,38.03
2022-11-28T12:06:49.241Z,37.88
2022-11-28T12:09:35.666Z,37.95
2022-11-28T12:12:29.317Z,37.38
2022-11-28T12:15:38.704Z,35.45
2022-11-28T12:18:37.643Z,40.65
2022-11-28T12:21:33.105Z,34.47
2022-11-28T12:24:24.438Z,35.22
2022-11-28T12:27:28.247Z,35.75
2022-11-28T12:33:09.775Z,35.15
2022-11-28T12:35:59.014Z,34.08
2022-11-28T12:38:47.999Z,33.03
2022-11-28T12:41:40.898Z,32.65
2022-11-28T12:44:38.986Z,34.53
2022-11-28T12:47:44.374Z,37.92
2022-11-28T12:50:41.267Z,40.80
2022-11-28T12:53:43.515Z,49.03
2022-11-28T12:56:29.627Z,57.15
2022-11-28T12:59:23.137Z,44.03
2022-11-28T13:02:27.251Z,39.25
2022-11-28T13:05:24.604Z,33.80
2022-11-28T13:08:26.871Z,35.80
2022-11-28T13:11:16.177Z,43.60
2022-11-28T13:14:05.278Z,31.55
2022-11-28T13:16:52.579Z,33.60
2022-11-28T13:19:41.803Z,35.88
2022-11-28T13:22:57.623Z,33.97
2022-11-28T13:25:59.026Z,30.30
2022-11-28T13:28:49.046Z,31.65
2022-11-28T13:31:41.488Z,31.38
2022-11-28T13:35:00.235Z,32.03
2022-11-28T13:41:35.146Z,31.17
2022-11-28T13:44:29.292Z,30.08
2022-11-28T13:47:27.965Z,29.15
2022-11-28T13:50:40.326Z,32.60
2022-11-28T13:53:26.999Z,28.50
2022-11-28T13:56:19.978Z,32.95
2022-11-28T13:59:16.642Z,29.77
2022-11-28T14:02:08.126Z,31.35
2022-11-28T14:04:54.766Z,28.90
2022-11-28T14:07:47.781Z,35.22
2022-11-28T14:10:50.187Z,29.20
2022-11-28T14:13:55.460Z,31.02
2022-11-28T14:17:12.076Z,30.63
2022-11-28T14:20:12.470Z,35.75
2022-11-28T14:23:05.121Z,32.03
2022-11-28T14:25:53.244Z,31.55
2022-11-28T14:28:44.571Z,32.90
2022-11-28T14:31:33.156Z,31.40
2022-11-28T14:34:39.550Z,35.08
2022-11-28T14:37:29.272Z,31.70
2022-11-28T14:40:51.676Z,31.52
2022-11-28T14:43:42.533Z,31.33
2022-11-28T14:46:31.470Z,30.33
2022-11-28T14:49:21.816Z,31.70
2022-11-28T14:52:36.969Z,32.35
2022-11-28T14:55:21.700Z,35.40
2022-11-28T14:58:16.405Z,34.83
2022-11-28T15:01:05.539Z,32.63
2022-11-28T15:03:57.664Z,34.65
2022-11-28T15:06:44.298Z,34.75
2022-11-28T15:09:37.650Z,32.92
2022-11-28T15:12:28.304Z,35.23
2022-11-28T15:15:17.677Z,36.53
2022-11-28T15:18:04.955Z,35.97
2022-11-28T15:20:55.614Z,35.15
2022-11-28T15:23:42.322Z,36.38
2022-11-28T15:26:30.722Z,32.53
2022-11-28T15:29:22.261Z,34.03
2022-11-28T15:32:09.065Z,32.83
2022-11-28T15:34:59.547Z,32.95
2022-11-28T15:37:48.696Z,29.40
2022-11-28T15:40:36.259Z,34.22
2022-11-28T15:43:23.662Z,30.23
2022-11-28T15:46:15.131Z,29.77
2022-11-28T15:49:02.824Z,30.63
2022-11-28T15:51:53.319Z,30.65
2022-11-28T15:54:41.523Z,33.50
2022-11-28T15:57:32.644Z,31.17
2022-11-28T16:00:20.610Z,29.15
2022-11-28T16:03:08.347Z,35.22
2022-11-28T16:05:56.194Z,33.83
2022-11-28T16:08:49.143Z,34.85
2022-11-28T16:11:36.915Z,33.60
2022-11-28T16:14:36.466Z,34.00
2022-11-28T16:17:31.399Z,34.03
2022-11-28T16:20:23.168Z,37.00
2022-11-28T16:23:20.181Z,34.00
2022-11-28T16:26:21.643Z,35.55
2022-11-28T16:29:07.926Z,30.90
2022-11-28T16:31:54.465Z,31.88
2022-11-28T16:34:51.417Z,34.88
2022-11-28T16:37:37.554Z,34.63
2022-11-28T16:40:24.420Z,38.28
2022-11-28T16:43:29.120Z,34.03
2022-11-28T16:46:35.811Z,36.55
2022-11-28T16:49:28.332Z,36.50
2022-11-28T16:52:14.503Z,38.65
2022-11-28T16:55:00.922Z,35.15
2022-11-28T16:57:47.729Z,33.88
2022-11-28T17:00:38.346Z,30.13
2022-11-28T17:03:45.108Z,32.55
2022-11-28T17:06:42.566Z,37.08
2022-11-28T17:09:30.790Z,31.38
2022-11-28T17:12:39.227Z,32.25
2022-11-28T17:15:26.243Z,31.53
2022-11-28T17:18:12.473Z,31.27
2022-11-28T17:21:00.001Z,31.30
2022-11-28T17:23:46.294Z,34.60
2022-11-28T17:26:33.258Z,38.67
2022-11-28T17:29:35.440Z,37.95
2022-11-28T17:32:21.780Z,33.10
2022-11-28T17:35:20.242Z,33.30
2022-11-28T17:38:06.564Z,34.70
2022-11-28T17:40:52.906Z,32.88
2022-11-28T17:43:42.508Z,37.40
2022-11-28T17:46:29.065Z,33.10
2022-11-28T17:49:15.485Z,39.42
2022-11-28T17:52:02.703Z,35.88
2022-11-28T17:54:49.564Z,35.50
2022-11-28T17:57:36.280Z,43.45
2022-11-28T18:00:22.993Z,37.65
2022-11-28T18:03:09.649Z,41.10
2022-11-28T18:05:55.733Z,38.42
2022-11-28T18:08:42.104Z,37.05
2022-11-28T18:11:28.993Z,35.85
2022-11-28T18:14:19.226Z,37.88
2022-11-28T18:17:06.572Z,37.45
2022-11-28T18:19:57.264Z,40.08
2022-11-28T18:22:44.079Z,35.05
2022-11-28T18:25:30.172Z,35.70
2022-11-28T18:28:18.965Z,36.55
2022-11-28T18:31:15.980Z,40.17
2022-11-28T18:34:03.608Z,39.75
2022-11-28T18:37:00.254Z,40.22
2022-11-28T18:39:50.034Z,43.90
2022-11-28T18:42:36.401Z,37.80
2022-11-28T18:45:22.907Z,41.17
2022-11-28T18:48:09.017Z,34.78
2022-11-28T18:50:55.743Z,37.35
2022-11-28T18:53:42.324Z,38.22
2022-11-28T18:56:30.716Z,39.97
2022-11-28T18:59:16.974Z,39.63
2022-11-28T19:02:03.273Z,41.88
2022-11-28T19:04:50.077Z,42.13
2022-11-28T19:07:36.179Z,38.00
2022-11-28T19:10:23.395Z,35.40
2022-11-28T19:13:10.209Z,33.90
2022-11-28T19:15:56.712Z,36.45
2022-11-28T19:18:43.738Z,35.05
2022-11-28T19:21:32.891Z,34.58
2022-11-28T19:24:21.077Z,36.13
2022-11-28T19:27:14.089Z,35.85
2022-11-28T19:30:02.291Z,37.45
2022-11-28T19:32:48.625Z,36.28
2022-11-28T19:35:35.581Z,36.58
2022-11-28T19:38:46.836Z,36.60
2022-11-28T19:41:33.277Z,34.25
2022-11-28T19:44:22.039Z,39.55
2022-11-28T19:47:08.545Z,32.13
2022-11-28T19:49:54.640Z,38.88
2022-11-28T19:52:41.511Z,41.83
2022-11-28T19:55:28.552Z,38.22
2022-11-28T19:58:14.842Z,33.25
2022-11-28T20:01:09.037Z,36.42
2022-11-28T20:03:55.708Z,37.75
2022-11-28T20:06:42.369Z,36.08
2022-11-28T20:09:29.576Z,38.33
2022-11-28T20:12:17.381Z,33.55
2022-11-28T20:15:03.934Z,36.17
2022-11-28T20:17:50.655Z,32.78
2022-11-28T20:20:36.838Z,35.80
2022-11-28T20:23:23.686Z,36.17
2022-11-28T20:26:10.496Z,32.42
2022-11-28T20:28:56.797Z,34.80
2022-11-28T20:32:04.856Z,29.80
2022-11-28T20:34:51.492Z,33.92
2022-11-28T20:37:39.466Z,36.78
2022-11-28T20:40:25.927Z,34.28
2022-11-28T20:43:12.198Z,30.88
2022-11-28T20:46:02.852Z,29.25
2022-11-28T20:48:49.749Z,33.63
2022-11-28T20:51:36.892Z,32.35
2022-11-28T20:54:23.212Z,33.08
2022-11-28T20:57:24.986Z,32.55
2022-11-28T21:00:22.281Z,31.35
2022-11-28T21:03:11.096Z,31.17
2022-11-28T21:06:01.014Z,27.98
2022-11-28T21:08:48.325Z,31.33
2022-11-28T21:11:56.762Z,31.25
2022-11-28T21:14:49.744Z,30.17
2022-11-28T21:17:36.938Z,30.35
2022-11-28T21:20:24.206Z,34.08
2022-11-28T21:23:11.510Z,33.30
2022-11-28T21:25:58.751Z,32.85
2022-11-28T21:28:45.876Z,27.92
2022-11-28T21:31:33.769Z,28.83
2022-11-28T21:34:20.390Z,27.33
2022-11-28T21:37:06.777Z,31.38
2022-11-28T21:39:53.232Z,29.08
2022-11-28T21:42:39.460Z,26.85
2022-11-28T21:45:28.673Z,31.67
2022-11-28T21:48:17.283Z,29.77
2022-11-28T21:51:29.709Z,29.25
2022-11-28T21:54:17.027Z,31.73
2022-11-28T21:57:04.488Z,27.67
2022-11-28T21:59:50.851Z,28.13
2022-11-28T22:02:38.141Z,31.45
2022-11-28T22:05:24.396Z,27.58
2022-11-28T22:08:10.963Z,31.23
2022-11-28T22:11:03.772Z,28.63
2022-11-28T22:13:50.236Z,33.42
2022-11-28T22:16:37.863Z,28.75
2022-11-28T22:19:25.543Z,29.17
2022-11-28T22:22:12.799Z,28.60
2022-11-28T22:24:59.463Z,29.73
2022-11-28T22:27:45.608Z,28.75
2022-11-28T22:30:31.971Z,29.20
2022-11-28T22:33:19.385Z,31.17
2022-11-28T22:36:13.096Z,28.20
2022-11-28T22:38:59.906Z,31.67
2022-11-28T22:41:46.375Z,27.88
2022-11-28T22:44:32.718Z,30.58
2022-11-28T22:47:19.936Z,29.40
2022-11-28T22:50:07.259Z,24.90
2022-11-28T22:52:53.963Z,28.63
2022-11-28T22:55:40.384Z,27.10
2022-11-28T22:58:27.178Z,25.30
2022-11-28T23:01:15.505Z,28.98
2022-11-28T23:04:02.561Z,28.30
2022-11-28T23:06:52.207Z,30.17
2022-11-28T23:09:39.592Z,29.67
2022-11-28T23:12:26.379Z,29.77
2022-11-28T23:15:13.040Z,30.88
2022-11-28T23:17:59.598Z,27.10
2022-11-28T23:20:46.384Z,31.98
2022-11-28T23:23:33.808Z,28.02
2022-11-28T23:26:22.135Z,34.65
2022-11-28T23:29:08.973Z,29.10
2022-11-28T23:31:55.481Z,27.20
2022-11-28T23:34:43.889Z,30.23
2022-11-28T23:37:30.771Z,28.20
2022-11-28T23:40:16.846Z,28.30
2022-11-28T23:43:03.110Z,29.30
2022-11-28T23:45:49.186Z,28.80
2022-11-28T23:48:36.075Z,28.48
2022-11-28T23:51:23.438Z,30.50
2022-11-28T23:54:10.787Z,28.90
2022-11-28T23:56:57.039Z,30.13
2022-11-28T23:59:43.172Z,34.70
